EDMA 200050Z AUTO 16009KT 9999 FEW150/// 17/13 Q1024 EDMA 200020Z AUTO 16007KT 9999 FEW140/// 17/13 Q1024 EDMA 192350Z AUTO 16007KT 9999 FEW079/// SCT240/// 18/13 Q1024 EDMA 192320Z AUTO 14004KT 9999 FEW081/// BKN140/// 18/12 Q1024 EDMA 192250Z AUTO 13006KT 9999 FEW130/// BKN180/// 18/12 Q1024 EDMA 192220Z AUTO 02007KT 9999 SCT078/// SCT130/// BKN200/// 19/12 Q1025 EDMA 192150Z AUTO 35010KT 9999 FEW077/// BKN110/// 20/13 Q1025 EDMA 192120Z AUTO 32011KT 9999 SCT077/// BKN098/// OVC130/// 21/13 Q1024 EDMA 192050Z AUTO 28006KT 9999 SCT086/// BKN097/// OVC110/// 21/12 Q1024 EDMA 192020Z AUTO 21007KT 9999 FEW091/// SCT110/// 22/11 Q1023 EDMA 191950Z AUTO 22007KT 9999 FEW140/// 21/12 Q1022 EDMA 191920Z AUTO 22005KT 9999 BKN140/// 22/13 Q1022 EDMA 191850Z 24007KT CAVOK 23/12 Q1022 EDMA 191820Z 27008KT CAVOK 24/13 Q1021 EDMA 191750Z 21004KT CAVOK 25/15 Q1021 EDMA 191720Z 23004KT CAVOK 26/15 Q1021 EDMA 191650Z 24004KT CAVOK 26/17 Q1021 EDMA 191620Z 26003KT 230V290 CAVOK 28/14 Q1021 EDMA 191550Z 25005KT 230V320 CAVOK 27/14 Q1020 EDMA 191520Z 33004KT 290V020 CAVOK 29/14 Q1020 EDMA 191450Z 32005KT 270V010 CAVOK 28/13 Q1021 EDMA 191420Z 30006KT 230V350 CAVOK 29/13 Q1021 EDMA 191350Z 29005KT 230V340 CAVOK 29/13 Q1021 EDMA 191320Z 28008KT 230V330 CAVOK 29/14 Q1022 EDMA 191250Z 30006KT 260V340 CAVOK 29/15 Q1022 EDMA 191220Z 29003KT 220V350 CAVOK 28/14 Q1022 EDMA 191150Z 25006KT 210V300 CAVOK 27/14 Q1022 EDMA 191120Z 24005KT 200V290 CAVOK 27/16 Q1022 EDMA 191050Z 24006KT 200V270 CAVOK 25/15 Q1022 EDMA 191020Z 24007KT 210V280 CAVOK 25/14 Q1023 EDMA 190950Z 23005KT 190V270 CAVOK 24/13 Q1023 EDMA 190920Z VRB02KT CAVOK 23/14 Q1023 EDMA 190850Z VRB02KT CAVOK 21/12 Q1023 EDMA 190820Z 13003KT 050V220 CAVOK 19/11 Q1023 EDMA 190750Z VRB03KT CAVOK 18/10 Q1023 EDMA 190720Z VRB03KT CAVOK 17/10 Q1023 EDMA 190650Z 14005KT 100V170 CAVOK 16/09 Q1023 EDMA 190620Z 12004KT 090V150 CAVOK 15/08 Q1023 EDMA 190550Z 11003KT CAVOK 14/07 Q1023 EDMA 190520Z VRB02KT CAVOK 13/08 Q1023 EDMA 190450Z VRB02KT CAVOK 12/07 Q1023 EDMA 190420Z AUTO VRB02KT 1700 NCD 10/06 Q1022 EDMA 190350Z AUTO VRB02KT 9999 NCD 11/05 Q1022 EDMA 190320Z AUTO 07003KT 040V130 9999 NCD 12/06 Q1022 EDMA 190250Z AUTO 06004KT 040V120 9999 NCD 12/06 Q1022 EDMA 190220Z AUTO 06004KT 9999 NCD 10/06 Q1022 EDMA 190150Z AUTO VRB02KT 9999 NCD 11/06 Q1023 EDMA 190120Z AUTO 05003KT 020V080 9999 NCD 13/06 Q1023 EDMA 190050Z AUTO VRB01KT 9999 NCD 13/07 Q1023 EDMA 190020Z AUTO 09003KT 050V140 9999 NCD 13/07 Q1023 EDMA 182350Z AUTO 07004KT 030V110 9999 NCD 13/08 Q1023 EDMA 182320Z AUTO 09004KT 9999 NCD 14/08 Q1023 EDMA 182250Z AUTO 11007KT 9999 NCD 15/08 Q1023 EDMA 182220Z AUTO 11006KT 9999 NCD 15/08 Q1023 EDMA 182150Z AUTO 11005KT 9999 NCD 15/08 Q1024 EDMA 182120Z AUTO 12005KT 9999 NCD 16/09 Q1024 EDMA 182050Z AUTO 13004KT 9999 NCD 17/09 Q1024 EDMA 182020Z AUTO 11006KT 9999 NCD 18/09 Q1024 EDMA 181950Z 09005KT CAVOK 18/09 Q1024 EDMA 181920Z 10006KT CAVOK 19/09 Q1023 EDMA 181850Z 10007KT CAVOK 19/10 Q1023 EDMA 181820Z 10007KT CAVOK 21/10 Q1023 EDMA 181750Z 10007KT CAVOK 22/11 Q1023 EDMA 181720Z 09009KT 070V140 CAVOK 22/11 Q1023 EDMA 181650Z 10009KT CAVOK 23/11 Q1023 EDMA 181620Z 11009KT 080V140 CAVOK 23/12 Q1023 EDMA 181550Z 12010KT 090V160 CAVOK 24/13 Q1023 EDMA 181520Z 10009KT 070V140 CAVOK 24/12 Q1023 EDMA 181450Z 10007KT 050V140 CAVOK 24/12 Q1023 EDMA 181420Z 13007KT 060V170 CAVOK 24/11 Q1023 EDMA 181350Z VRB06KT CAVOK 25/13 Q1023

METAR Messwerte "AUGSBURG/MULHAUS" EDMA

Zurück zur Übersicht

Ortsname
Ländercode / m ü. NN
Zeit Temperatur Taupunkt Rel.
Luftfeuchte
Luftdruck:
Altimeter
NN
Station
Wind in Beaufort
(Knoten)
Sichtweite
(Meter)
Wolken
(Meter über Grund)
Wettererscheinung
AUGSBURG/MULHAUS
DE 462
Fr 20.05. 02:50171377 %1024
1024
969
SSO 3 (9)>= 10000Leicht bewölkt (4600) 
AUGSBURG/MULHAUS
DE 462
Fr 20.05. 02:20171377 %1024
1024
969
SSO 3 (7)>= 10000Leicht bewölkt (4300) 
AUGSBURG/MULHAUS
DE 462
Fr 20.05. 01:50181373 %1024
1024
969
SSO 3 (7)>= 10000Wolkig (7300)
Leicht bewölkt (2400)
 
AUGSBURG/MULHAUS
DE 462
Fr 20.05. 01:20181268 %1024
1024
969
SO 2 (4)>= 10000Stark bewölkt (4300)
Leicht bewölkt (2500)
 
AUGSBURG/MULHAUS
DE 462
Fr 20.05. 00:50181268 %1024
1024
969
SO 2 (6)>= 10000Stark bewölkt (5500)
Leicht bewölkt (4000)
 
AUGSBURG/MULHAUS
DE 462
Fr 20.05. 00:20191264 %1025
1024
970
NNO 3 (7)>= 10000Stark bewölkt (6100)
Wolkig (4000)
Wolkig (2400)
 
AUGSBURG/MULHAUS
DE 462
Do 19.05. 23:50201364 %1025
1024
970
N 3 (10)>= 10000Stark bewölkt (3400)
Leicht bewölkt (2300)
 
AUGSBURG/MULHAUS
DE 462
Do 19.05. 23:20211360 %1024
1023
969
NW 4 (11)>= 10000Bedeckt (4000)
Stark bewölkt (3000)
Wolkig (2300)
 
AUGSBURG/MULHAUS
DE 462
Do 19.05. 22:50211256 %1024
1023
969
W 2 (6)>= 10000Bedeckt (3400)
Stark bewölkt (3000)
Wolkig (2600)
 
AUGSBURG/MULHAUS
DE 462
Do 19.05. 22:20221150 %1023
1022
968
SSW 3 (7)>= 10000Wolkig (3400)
Leicht bewölkt (2800)
 
AUGSBURG/MULHAUS
DE 462
Do 19.05. 21:50211256 %1022
1021
967
SW 3 (7)>= 10000Leicht bewölkt (4300) 
AUGSBURG/MULHAUS
DE 462
Do 19.05. 21:20221357 %1022
1021
967
SW 2 (5)>= 10000Stark bewölkt (4300) 
AUGSBURG/MULHAUS
DE 462
Do 19.05. 20:50231250 %1022
1021
967
WSW 3 (7)>= 10000Nicht signifikant 
AUGSBURG/MULHAUS
DE 462
Do 19.05. 20:20241350 %1021
1019
966
W 3 (8)>= 10000Nicht signifikant 
AUGSBURG/MULHAUS
DE 462
Do 19.05. 19:50251554 %1021
1019
966
SSW 2 (4)>= 10000Nicht signifikant 
AUGSBURG/MULHAUS
DE 462
Do 19.05. 19:20261551 %1021
1019
966
SW 2 (4)>= 10000Nicht signifikant 
AUGSBURG/MULHAUS
DE 462
Do 19.05. 18:50261758 %1021
1019
966
WSW 2 (4)>= 10000Nicht signifikant 
AUGSBURG/MULHAUS
DE 462
Do 19.05. 18:20281442 %1021
1019
966
W 2 (3)
SW - WNW
>= 10000Nicht signifikant 
AUGSBURG/MULHAUS
DE 462
Do 19.05. 17:50271445 %1020
1018
965
WSW 2 (5)
SW - NW
>= 10000Nicht signifikant 
AUGSBURG/MULHAUS
DE 462
Do 19.05. 17:20291440 %1020
1017
965
NNW 2 (4)
WNW - NNO
>= 10000Nicht signifikant 
AUGSBURG/MULHAUS
DE 462
Do 19.05. 16:50281340 %1021
1019
966
NW 2 (5)
W - N
>= 10000Nicht signifikant 
AUGSBURG/MULHAUS
DE 462
Do 19.05. 16:20291337 %1021
1018
966
WNW 2 (6)
SW - N
>= 10000Nicht signifikant 
AUGSBURG/MULHAUS
DE 462
Do 19.05. 15:50291337 %1021
1018
966
WNW 2 (5)
SW - NNW
>= 10000Nicht signifikant 
AUGSBURG/MULHAUS
DE 462
Do 19.05. 15:20291440 %1022
1019
967
W 3 (8)
SW - NNW
>= 10000Nicht signifikant 
AUGSBURG/MULHAUS
DE 462
Do 19.05. 14:50291543 %1022
1019
967
WNW 2 (6)
W - NNW
>= 10000Nicht signifikant 
AUGSBURG/MULHAUS
DE 462
Do 19.05. 14:20281442 %1022
1020
967
WNW 2 (3)
SW - N
>= 10000Nicht signifikant 
AUGSBURG/MULHAUS
DE 462
Do 19.05. 13:50271445 %1022
1020
967
WSW 2 (6)
SSW - WNW
>= 10000Nicht signifikant 
AUGSBURG/MULHAUS
DE 462
Do 19.05. 13:20271651 %1022
1020
967
WSW 2 (5)
SSW - WNW
>= 10000Nicht signifikant 
AUGSBURG/MULHAUS
DE 462
Do 19.05. 12:50251554 %1022
1020
967
WSW 2 (6)
SSW - W
>= 10000Nicht signifikant 
AUGSBURG/MULHAUS
DE 462
Do 19.05. 12:20251450 %1023
1021
968
WSW 3 (7)
SSW - W
>= 10000Nicht signifikant 
AUGSBURG/MULHAUS
DE 462
Do 19.05. 11:50241350 %1023
1021
968
SW 2 (5)
S - W
>= 10000Nicht signifikant 
AUGSBURG/MULHAUS
DE 462
Do 19.05. 11:20231457 %1023
1022
968
Uml 1 (2)>= 10000Nicht signifikant 
AUGSBURG/MULHAUS
DE 462
Do 19.05. 10:50211256 %1023
1022
968
Uml 1 (2)>= 10000Nicht signifikant 
AUGSBURG/MULHAUS
DE 462
Do 19.05. 10:20191160 %1023
1022
968
SO 2 (3)
NO - SW
>= 10000Nicht signifikant 
AUGSBURG/MULHAUS
DE 462
Do 19.05. 09:50181059 %1023
1023
968
Uml 2 (3)>= 10000Nicht signifikant 
AUGSBURG/MULHAUS
DE 462
Do 19.05. 09:20171063 %1023
1023
968
Uml 2 (3)>= 10000Nicht signifikant 
AUGSBURG/MULHAUS
DE 462
Do 19.05. 08:5016963 %1023
1023
968
SO 2 (5)
O - S
>= 10000Nicht signifikant 
AUGSBURG/MULHAUS
DE 462
Do 19.05. 08:2015863 %1023
1023
968
OSO 2 (4)
O - SSO
>= 10000Nicht signifikant 
AUGSBURG/MULHAUS
DE 462
Do 19.05. 07:5014763 %1023
1023
968
OSO 2 (3)>= 10000Nicht signifikant 
AUGSBURG/MULHAUS
DE 462
Do 19.05. 07:2013872 %1023
1024
968
Uml 1 (2)>= 10000Nicht signifikant 
AUGSBURG/MULHAUS
DE 462
Do 19.05. 06:5012771 %1023
1024
968
Uml 1 (2)>= 10000Nicht signifikant 
AUGSBURG/MULHAUS
DE 462
Do 19.05. 06:2010676 %1022
1023
967
Uml 1 (2)1700  
AUGSBURG/MULHAUS
DE 462
Do 19.05. 05:5011566 %1022
1023
967
Uml 1 (2)>= 10000  
AUGSBURG/MULHAUS
DE 462
Do 19.05. 05:2012667 %1022
1023
967
ONO 2 (3)
NO - SO
>= 10000  
AUGSBURG/MULHAUS
DE 462
Do 19.05. 04:5012667 %1022
1023
967
ONO 2 (4)
NO - OSO
>= 10000  
AUGSBURG/MULHAUS
DE 462
Do 19.05. 04:2010676 %1022
1023
967
ONO 2 (4)>= 10000  
AUGSBURG/MULHAUS
DE 462
Do 19.05. 03:5011671 %1023
1024
968
Uml 1 (2)>= 10000  
AUGSBURG/MULHAUS
DE 462
Do 19.05. 03:2013662 %1023
1024
968
NO 2 (3)
NNO - O
>= 10000  
AUGSBURG/MULHAUS
DE 462
Do 19.05. 02:5013767 %1023
1024
968
Uml 1 (1)>= 10000  
AUGSBURG/MULHAUS
DE 462
Do 19.05. 02:2013767 %1023
1024
968
O 2 (3)
NO - SO
>= 10000  
AUGSBURG/MULHAUS
DE 462
Do 19.05. 01:5013872 %1023
1024
968
ONO 2 (4)
NNO - OSO
>= 10000  
AUGSBURG/MULHAUS
DE 462
Do 19.05. 01:2014867 %1023
1023
968
O 2 (4)>= 10000  
AUGSBURG/MULHAUS
DE 462
Do 19.05. 00:5015863 %1023
1023
968
OSO 3 (7)>= 10000  
AUGSBURG/MULHAUS
DE 462
Do 19.05. 00:2015863 %1023
1023
968
OSO 2 (6)>= 10000  
AUGSBURG/MULHAUS
DE 462
Mi 18.05. 23:5015863 %1024
1024
969
OSO 2 (5)>= 10000  
AUGSBURG/MULHAUS
DE 462
Mi 18.05. 23:2016963 %1024
1024
969
OSO 2 (5)>= 10000  
AUGSBURG/MULHAUS
DE 462
Mi 18.05. 22:5017959 %1024
1024
969
SO 2 (4)>= 10000  
AUGSBURG/MULHAUS
DE 462
Mi 18.05. 22:2018956 %1024
1024
969
OSO 2 (6)>= 10000  
AUGSBURG/MULHAUS
DE 462
Mi 18.05. 21:5018956 %1024
1024
969
O 2 (5)>= 10000Nicht signifikant 
AUGSBURG/MULHAUS
DE 462
Mi 18.05. 21:2019952 %1023
1022
968
O 2 (6)>= 10000Nicht signifikant 
AUGSBURG/MULHAUS
DE 462
Mi 18.05. 20:50191056 %1023
1022
968
O 3 (7)>= 10000Nicht signifikant 
AUGSBURG/MULHAUS
DE 462
Mi 18.05. 20:20211049 %1023
1022
968
O 3 (7)>= 10000Nicht signifikant 
AUGSBURG/MULHAUS
DE 462
Mi 18.05. 19:50221150 %1023
1022
968
O 3 (7)>= 10000Nicht signifikant 
AUGSBURG/MULHAUS
DE 462
Mi 18.05. 19:20221150 %1023
1022
968
O 3 (9)
ONO - SO
>= 10000Nicht signifikant 
AUGSBURG/MULHAUS
DE 462
Mi 18.05. 18:50231147 %1023
1022
968
O 3 (9)>= 10000Nicht signifikant 
AUGSBURG/MULHAUS
DE 462
Mi 18.05. 18:20231250 %1023
1022
968
OSO 3 (9)
O - SO
>= 10000Nicht signifikant 
AUGSBURG/MULHAUS
DE 462
Mi 18.05. 17:50241350 %1023
1021
968
OSO 3 (10)
O - SSO
>= 10000Nicht signifikant 
AUGSBURG/MULHAUS
DE 462
Mi 18.05. 17:20241247 %1023
1021
968
O 3 (9)
ONO - SO
>= 10000Nicht signifikant 
AUGSBURG/MULHAUS
DE 462
Mi 18.05. 16:50241247 %1023
1021
968
O 3 (7)
NO - SO
>= 10000Nicht signifikant 
AUGSBURG/MULHAUS
DE 462
Mi 18.05. 16:20241144 %1023
1021
968
SO 3 (7)
ONO - S
>= 10000Nicht signifikant 
AUGSBURG/MULHAUS
DE 462
Mi 18.05. 15:50251347 %1023
1021
968
Uml 2 (6)>= 10000Nicht signifikant 

Altimeter: Einstellung am Altimeter (Höhenmesser), die Höhe 0 muss auf diesen Luftdruckwert zeigen, damit das Gerät die Stationshöhe richtig anzeigt.

NN: Luftdruck reduziert auf "Normal Null", auf Meereshöhe, dieser von der Temperatur abhängige Wert wird bisweilen unkorrekt einfach als "Luftdruck" bezeichnet. Eigentlich nur eine fiktive Größe, die es erlaubt, Stationen auf unterschiedlichen Höhen miteinander zu vergleichen.

Station: Realer Luftdruck an der Station.